map of KHK home
KHK - Airport
Location
City:  Khark Island, Bushehr, Iran
ICAO:OIBQ
IATA:KHK

Details
Type:Airport (Aerodrome, Airfield)
Latitude:2915'37"N (29.260278)
Longitude:5019'26"E (50.323889)
Datum:WGS 1984
Elevation:17 ft (5 m)
Variation:3.40E (WMM2015v2 magnetic declination)
0.05 annual change
Runways:1
Longest:5922 × 148 ft (1805 × 45 m), paved

Time
Time Zone:UTC+3:30 (DST+4:30)
Local Time:

Weather
METAR:OIBQ 041400Z 31016KT CAVOK 17/11 Q1021

Related Locations
Nearby:
Farthest:GMR: 11902 mi / 19154 km
Mangareva [Totegegie], Gambier Islands, PF

Find:

   beyond  
but within

Other Information
Maps:
NOTAMs:
Links:
Sources:

  
  • flag of Iran
  

Sectional Chart

Flight Planning
at skyvector.com

Satellite Image

Google Maps Satellite view

 

Copyright © 2004-2019 Karl L. Swartz. All rights reserved.
The Great Circle Mapper name and logo are trademarks of the Great Circle Mapper.
All other trademarks mentioned herein belong to their respective owners.
Please see credits for attibutions and further copyright information.

  Follow gcmap on Facebook Follow gcmap on Twitter GCmap on LinkedIn

hCard Microformat

Geo Microformat